Time;durP1;ratioP1;P1;durP2;ratioP2;P2;SDS_P1;SDS_P2;PMS_P1;PMS_P2;Temp;Humidity;BMP_temperature;BMP_pressure;BME280_temperature;BME280_humidity;BME280_pressure;Samples;Min_cycle;Max_cycle;Signal;HPM_P1;HPM_P2
2022/06/20 00:01:44;;;;;;;6.28;1.70;;;18.70;84.40;;;;;;5059251;28;20032;-65
2022/06/20 00:04:18;;;;;;;4.65;1.10;;;18.70;84.30;;;;;;5071034;28;20117;-65
2022/06/20 00:06:45;;;;;;;5.97;1.38;;;18.70;84.20;;;;;;5055000;28;20036;-65
2022/06/20 00:09:14;;;;;;;6.80;1.27;;;18.60;84.10;;;;;;5069221;28;20130;-65
2022/06/20 00:11:47;;;;;;;8.65;1.70;;;18.60;84.10;;;;;;5069814;28;20115;-65
2022/06/20 00:14:17;;;;;;;9.50;2.83;;;18.60;83.90;;;;;;5070015;28;20379;-65
2022/06/20 00:16:42;;;;;;;3.92;1.40;;;18.60;83.90;;;;;;5067468;28;20087;-65
2022/06/20 00:19:12;;;;;;;8.23;1.90;;;18.50;83.80;;;;;;5062086;28;20029;-65
2022/06/20 00:21:39;;;;;;;6.40;1.30;;;18.50;83.60;;;;;;5060276;28;20021;-65
2022/06/20 00:24:06;;;;;;;6.43;1.80;;;18.50;83.50;;;;;;5070282;28;20029;-65
2022/06/20 00:26:32;;;;;;;5.25;1.45;;;18.50;83.40;;;;;;5072182;28;20035;-65
2022/06/20 00:28:58;;;;;;;5.47;1.90;;;18.50;83.30;;;;;;5065881;28;20064;-65
2022/06/20 00:31:23;;;;;;;10.27;1.88;;;18.50;83.20;;;;;;5063751;28;20055;-65
2022/06/20 00:33:49;;;;;;;5.30;1.55;;;18.50;83.10;;;;;;5070956;28;20127;-65
2022/06/20 00:36:15;;;;;;;6.22;1.30;;;18.40;83.00;;;;;;5072850;28;20124;-65
2022/06/20 00:38:43;;;;;;;9.63;1.42;;;18.40;83.00;;;;;;5052683;28;20040;-65
2022/06/20 00:41:19;;;;;;;7.47;1.33;;;18.40;83.00;;;;;;5064278;28;20100;-65
2022/06/20 00:43:50;;;;;;;4.00;1.50;;;18.40;82.90;;;;;;5059260;28;20036;-64
2022/06/20 00:46:43;;;;;;;7.22;1.52;;;18.40;82.80;;;;;;5069404;28;20056;-65
2022/06/20 00:49:15;;;;;;;5.95;1.48;;;18.40;82.80;;;;;;5071457;28;20685;-65
2022/06/20 00:51:51;;;;;;;5.32;1.80;;;18.30;82.60;;;;;;5069741;28;20032;-65
2022/06/20 00:54:26;;;;;;;4.35;1.92;;;18.40;82.60;;;;;;5057817;28;20743;-65
2022/06/20 00:57:05;;;;;;;11.55;1.67;;;18.30;82.50;;;;;;5059884;28;20025;-65
2022/06/20 00:59:36;;;;;;;12.43;2.00;;;18.30;82.50;;;;;;5070440;28;20028;-65
2022/06/20 01:02:06;;;;;;;7.55;1.52;;;18.30;82.50;;;;;;5061671;28;20082;-65
2022/06/20 01:04:35;;;;;;;6.65;2.20;;;18.30;82.60;;;;;;5064992;28;20057;-65
2022/06/20 01:07:05;;;;;;;7.95;1.65;;;18.20;82.60;;;;;;5051492;28;20106;-65
2022/06/20 01:09:36;;;;;;;5.65;1.23;;;18.30;82.70;;;;;;5064069;28;20373;-65
2022/06/20 01:12:03;;;;;;;8.13;1.48;;;18.20;82.70;;;;;;5064078;28;20025;-65
2022/06/20 01:14:37;;;;;;;7.25;1.33;;;18.20;82.70;;;;;;5068922;28;20048;-65
2022/06/20 01:17:15;;;;;;;5.07;1.42;;;18.20;82.80;;;;;;5070686;28;20032;-65
2022/06/20 01:20:02;;;;;;;5.70;1.48;;;18.20;82.80;;;;;;5060274;28;20106;-65
2022/06/20 01:22:55;;;;;;;5.85;1.35;;;18.10;82.80;;;;;;5068733;28;20024;-65
2022/06/20 01:25:21;;;;;;;7.93;2.03;;;18.10;82.80;;;;;;5071170;28;20028;-65
2022/06/20 01:27:48;;;;;;;7.82;1.63;;;18.00;82.80;;;;;;5061904;28;20078;-65
2022/06/20 01:30:14;;;;;;;5.88;1.58;;;18.00;83.00;;;;;;5050912;28;20503;-65
2022/06/20 01:32:42;;;;;;;8.30;1.50;;;17.90;83.00;;;;;;5058554;28;20050;-65
2022/06/20 01:35:11;;;;;;;5.57;1.27;;;18.00;83.10;;;;;;5061152;28;20044;-65
2022/06/20 01:37:41;;;;;;;2.58;1.20;;;17.90;83.10;;;;;;5059981;28;20161;-65
2022/06/20 01:40:12;;;;;;;4.22;1.30;;;17.90;83.20;;;;;;5069937;28;20104;-65
2022/06/20 01:42:40;;;;;;;15.23;1.73;;;17.80;83.10;;;;;;5062911;28;20095;-65
2022/06/20 01:48:06;;;;;;;7.35;1.60;;;17.70;83.20;;;;;;5060730;28;20499;-65
2022/06/20 01:50:33;;;;;;;6.18;1.52;;;17.70;83.20;;;;;;5058947;28;20048;-65
2022/06/20 01:53:01;;;;;;;4.80;1.58;;;17.70;83.30;;;;;;5068351;28;20496;-65
2022/06/20 01:55:28;;;;;;;5.60;1.70;;;17.60;83.20;;;;;;5070205;28;20568;-65
2022/06/20 01:58:07;;;;;;;5.90;1.30;;;17.60;83.30;;;;;;5069900;28;20495;-65
2022/06/20 02:00:36;;;;;;;4.25;1.63;;;17.60;83.30;;;;;;5051920;28;20021;-65
2022/06/20 02:03:14;;;;;;;9.20;1.10;;;17.50;83.30;;;;;;5064306;28;20476;-66
2022/06/20 02:05:46;;;;;;;7.78;1.45;;;17.50;83.30;;;;;;5059022;28;20033;-65
2022/06/20 02:08:15;;;;;;;4.15;1.27;;;17.50;83.20;;;;;;5063654;28;20028;-65
2022/06/20 02:10:48;;;;;;;3.90;1.35;;;17.50;83.20;;;;;;5063502;28;20039;-65
2022/06/20 02:13:16;;;;;;;4.03;1.27;;;17.40;83.20;;;;;;5051615;28;20033;-65
2022/06/20 02:15:43;;;;;;;4.13;1.40;;;17.40;83.20;;;;;;5066627;28;20040;-65
2022/06/20 02:18:09;;;;;;;7.28;1.60;;;17.40;83.20;;;;;;5052150;28;20025;-66
2022/06/20 02:20:45;;;;;;;11.10;1.35;;;17.40;83.20;;;;;;5068068;28;20028;-65
2022/06/20 02:23:14;;;;;;;3.15;1.25;;;17.40;83.10;;;;;;5057391;28;20479;-65
2022/06/20 02:25:42;;;;;;;3.47;1.27;;;17.40;83.10;;;;;;5055986;28;20476;-65
2022/06/20 02:28:17;;;;;;;3.03;1.20;;;17.40;83.10;;;;;;5059161;28;20458;-65
2022/06/20 02:30:43;;;;;;;5.70;1.45;;;17.30;83.10;;;;;;5072250;28;20039;-66
2022/06/20 02:33:26;;;;;;;3.88;1.20;;;17.30;83.20;;;;;;5068131;28;20032;-65
2022/06/20 02:35:54;;;;;;;7.50;1.50;;;17.30;83.40;;;;;;5071161;28;20039;-65
2022/06/20 02:38:21;;;;;;;5.32;1.48;;;17.20;83.40;;;;;;5070867;28;20086;-66
2022/06/20 02:40:49;;;;;;;10.43;1.60;;;17.20;84.30;;;;;;5073085;28;20042;-66
2022/06/20 02:43:35;;;;;;;3.67;1.42;;;17.20;84.00;;;;;;5071302;28;20060;-66
2022/06/20 02:46:02;;;;;;;5.82;2.13;;;17.10;84.40;;;;;;5072394;28;20027;-66
2022/06/20 02:48:31;;;;;;;4.75;1.50;;;17.10;84.80;;;;;;5072644;28;20028;-66
2022/06/20 02:51:01;;;;;;;8.52;1.63;;;17.10;84.90;;;;;;5071813;28;20051;-66
2022/06/20 02:53:39;;;;;;;8.93;2.00;;;17.10;84.80;;;;;;5072788;28;20544;-66
2022/06/20 02:56:07;;;;;;;8.35;1.88;;;17.00;84.60;;;;;;5061027;28;20025;-66
2022/06/20 02:58:38;;;;;;;12.40;1.98;;;17.10;84.30;;;;;;5056756;28;20041;-66
2022/06/20 03:01:39;;;;;;;11.13;1.98;;;17.00;84.30;;;;;;5064570;28;20107;-66
2022/06/20 03:04:07;;;;;;;5.32;1.30;;;17.00;84.20;;;;;;5061150;28;20041;-66
2022/06/20 03:06:38;;;;;;;6.70;1.50;;;16.90;84.00;;;;;;5072987;28;20041;-66
2022/06/20 03:09:04;;;;;;;7.43;2.10;;;16.90;84.00;;;;;;5066526;28;20021;-66
2022/06/20 03:11:34;;;;;;;7.93;1.50;;;17.00;84.10;;;;;;5071669;28;20025;-66
2022/06/20 03:14:03;;;;;;;9.68;2.70;;;16.90;84.00;;;;;;5073026;28;20040;-66
2022/06/20 03:16:30;;;;;;;8.45;1.80;;;16.90;84.10;;;;;;5073022;28;20031;-66
2022/06/20 03:18:58;;;;;;;7.13;1.50;;;16.80;84.00;;;;;;5071799;28;20059;-66
2022/06/20 03:21:28;;;;;;;8.60;2.17;;;16.80;84.00;;;;;;5071651;28;20427;-66
2022/06/20 03:23:54;;;;;;;5.80;1.95;;;16.80;84.10;;;;;;5070647;28;20071;-66
2022/06/20 03:26:24;;;;;;;5.88;1.75;;;16.80;84.10;;;;;;5072757;28;20028;-66
2022/06/20 03:28:50;;;;;;;8.27;1.88;;;16.80;84.00;;;;;;5072475;28;20032;-66
2022/06/20 03:31:19;;;;;;;10.93;2.22;;;16.70;83.90;;;;;;5059364;28;20033;-66
2022/06/20 03:33:46;;;;;;;8.57;1.90;;;16.70;83.90;;;;;;5053153;28;20056;-66
2022/06/20 03:36:22;;;;;;;6.38;1.75;;;16.70;83.90;;;;;;5069782;28;20056;-66
2022/06/20 03:38:50;;;;;;;7.70;2.40;;;16.70;83.90;;;;;;5072068;28;20024;-66
2022/06/20 03:41:20;;;;;;;9.05;1.95;;;16.60;84.00;;;;;;5072128;28;20033;-66
2022/06/20 03:43:58;;;;;;;9.25;2.05;;;16.60;84.00;;;;;;5073478;28;20483;-66
2022/06/20 03:46:30;;;;;;;5.93;1.83;;;16.60;83.90;;;;;;5060846;28;20464;-66
2022/06/20 03:49:16;;;;;;;20.90;2.47;;;16.60;84.50;;;;;;5071051;28;20039;-66
2022/06/20 03:51:48;;;;;;;9.50;2.88;;;16.60;84.00;;;;;;5052468;28;20500;-65
2022/06/20 03:54:21;;;;;;;9.43;2.20;;;16.60;84.00;;;;;;5061819;28;20502;-65
2022/06/20 03:57:12;;;;;;;9.48;2.38;;;16.50;84.00;;;;;;5071151;28;20025;-65
2022/06/20 03:59:48;;;;;;;7.25;2.13;;;16.60;84.00;;;;;;5055216;28;20029;-65
2022/06/20 04:02:22;;;;;;;7.80;1.70;;;16.50;83.90;;;;;;5072248;28;20501;-65
2022/06/20 04:04:58;;;;;;;10.10;1.67;;;16.50;84.10;;;;;;5071829;28;20120;-65
2022/06/20 04:07:31;;;;;;;6.43;1.70;;;16.50;83.70;;;;;;5062970;28;20417;-65
2022/06/20 04:13:13;;;;;;;6.03;1.80;;;16.40;83.70;;;;;;5072298;28;20040;-65
2022/06/20 04:15:50;;;;;;;3.67;1.60;;;16.40;83.70;;;;;;5061758;28;20033;-65
2022/06/20 04:18:41;;;;;;;7.72;1.90;;;16.40;83.70;;;;;;5068323;28;20029;-65
2022/06/20 04:21:33;;;;;;;3.63;1.48;;;16.30;83.50;;;;;;5069592;28;20043;-65
2022/06/20 04:24:17;;;;;;;5.80;1.60;;;16.30;83.20;;;;;;5069762;28;20032;-65
2022/06/20 04:26:54;;;;;;;9.20;1.80;;;16.20;83.30;;;;;;5071055;28;20025;-65
2022/06/20 04:29:27;;;;;;;6.10;2.00;;;16.20;83.30;;;;;;5070370;28;20403;-65
2022/06/20 04:32:13;;;;;;;7.82;2.25;;;16.20;83.50;;;;;;5068098;28;20387;-65
2022/06/20 04:34:44;;;;;;;4.87;1.80;;;16.10;83.70;;;;;;5067626;28;20068;-65
2022/06/20 04:37:17;;;;;;;3.75;1.60;;;16.10;84.00;;;;;;5070920;28;20274;-65
2022/06/20 04:40:21;;;;;;;5.70;1.70;;;16.10;84.20;;;;;;5072016;28;20025;-65
2022/06/20 04:43:14;;;;;;;4.80;1.60;;;16.10;84.10;;;;;;5054880;28;20028;-65
2022/06/20 04:45:46;;;;;;;4.57;1.30;;;16.10;84.00;;;;;;5071487;28;20816;-65
2022/06/20 04:48:18;;;;;;;6.43;1.55;;;16.10;83.80;;;;;;5067706;28;20024;-65
2022/06/20 04:50:50;;;;;;;10.40;2.45;;;16.00;83.80;;;;;;5068771;28;20024;-64
2022/06/20 04:53:24;;;;;;;6.78;1.90;;;16.00;84.20;;;;;;5069217;28;20040;-63
2022/06/20 04:55:53;;;;;;;6.05;1.92;;;16.00;84.40;;;;;;5070589;28;20472;-63
2022/06/20 04:58:35;;;;;;;5.60;1.88;;;16.00;84.50;;;;;;5060150;28;20060;-63
2022/06/20 05:01:03;;;;;;;6.05;1.90;;;16.00;84.70;;;;;;5067783;28;20052;-63
2022/06/20 05:03:35;;;;;;;5.82;1.45;;;16.00;84.70;;;;;;5065975;28;20048;-64
2022/06/20 05:06:03;;;;;;;4.07;1.75;;;16.00;84.60;;;;;;5067452;28;20028;-64
2022/06/20 05:08:43;;;;;;;12.95;1.92;;;16.00;84.80;;;;;;5064506;28;20044;-64
2022/06/20 05:11:18;;;;;;;5.75;1.95;;;16.00;84.70;;;;;;5070191;28;20025;-63
2022/06/20 05:13:57;;;;;;;10.18;1.98;;;16.00;84.90;;;;;;5065490;28;20518;-64
2022/06/20 05:16:28;;;;;;;10.80;2.08;;;15.90;84.80;;;;;;5064601;28;20037;-63
2022/06/20 05:18:59;;;;;;;8.18;2.40;;;15.90;84.80;;;;;;5065145;28;20040;-64
2022/06/20 05:21:31;;;;;;;5.97;1.92;;;16.00;85.30;;;;;;5066887;28;20028;-64
2022/06/20 05:24:05;;;;;;;16.45;2.33;;;16.00;85.40;;;;;;5065791;28;20048;-64
2022/06/20 05:26:35;;;;;;;9.32;2.13;;;16.00;86.10;;;;;;5068605;28;20029;-65
2022/06/20 05:29:12;;;;;;;8.75;2.30;;;16.00;85.90;;;;;;5066972;28;20068;-66
2022/06/20 05:31:42;;;;;;;15.98;2.83;;;16.00;86.30;;;;;;5069236;28;20052;-64
2022/06/20 05:34:25;;;;;;;5.63;2.20;;;16.00;86.70;;;;;;5067555;28;20054;-64
2022/06/20 05:37:04;;;;;;;10.55;3.50;;;16.00;86.00;;;;;;5067975;28;20031;-66
2022/06/20 05:39:36;;;;;;;6.10;2.33;;;16.10;85.60;;;;;;5069378;28;20059;-64
2022/06/20 05:42:04;;;;;;;8.57;2.42;;;16.10;85.50;;;;;;5066998;28;20060;-64
2022/06/20 05:44:30;;;;;;;4.45;1.60;;;16.00;85.50;;;;;;5068154;28;20040;-64
2022/06/20 05:47:04;;;;;;;10.63;3.13;;;16.10;86.00;;;;;;5065717;28;20392;-65
2022/06/20 05:49:35;;;;;;;11.65;2.58;;;16.10;87.20;;;;;;5070737;28;20028;-65
2022/06/20 05:52:05;;;;;;;9.52;2.55;;;16.20;87.60;;;;;;5069370;28;20031;-65
2022/06/20 05:54:37;;;;;;;7.95;2.65;;;16.20;87.20;;;;;;5072549;28;20499;-66
2022/06/20 05:57:16;;;;;;;12.90;2.43;;;16.30;87.10;;;;;;5074724;28;20024;-66
2022/06/20 05:59:46;;;;;;;12.52;2.88;;;16.30;87.40;;;;;;5062144;28;20036;-66
2022/06/20 06:02:24;;;;;;;9.82;2.60;;;16.40;87.70;;;;;;5075221;28;20025;-66
2022/06/20 06:05:12;;;;;;;15.93;2.80;;;16.40;87.90;;;;;;5074430;28;20411;-65
2022/06/20 06:07:47;;;;;;;14.65;2.80;;;16.30;88.20;;;;;;5058596;28;20048;-66
2022/06/20 06:10:33;;;;;;;7.28;2.03;;;16.40;88.20;;;;;;5063816;28;20028;-65
2022/06/20 06:13:23;;;;;;;10.13;2.42;;;16.50;87.80;;;;;;5060543;28;20557;-65
2022/06/20 06:19:16;;;;;;;9.32;2.15;;;16.50;87.00;;;;;;5067937;28;20403;-65
2022/06/20 06:21:43;;;;;;;11.00;2.60;;;16.50;86.50;;;;;;5055631;28;20033;-66
2022/06/20 06:24:12;;;;;;;5.70;1.83;;;16.60;86.60;;;;;;5070779;28;20525;-66
2022/06/20 06:26:40;;;;;;;9.57;2.63;;;16.60;86.50;;;;;;5074506;28;20538;-65
2022/06/20 06:29:15;;;;;;;13.18;2.85;;;16.60;86.50;;;;;;5060905;28;20035;-65
2022/06/20 06:31:42;;;;;;;3.00;1.15;;;16.70;86.40;;;;;;5074009;28;20040;-66
2022/06/20 06:34:36;;;;;;;13.52;2.58;;;16.70;85.60;;;;;;5072534;28;20037;-65
2022/06/20 06:37:08;;;;;;;13.25;2.97;;;16.70;86.20;;;;;;5054248;28;20060;-65
2022/06/20 06:40:12;;;;;;;8.63;2.38;;;16.70;85.80;;;;;;5074577;28;20111;-66
2022/06/20 06:42:40;;;;;;;10.95;2.33;;;16.80;85.80;;;;;;5057877;28;20381;-65
2022/06/20 06:45:11;;;;;;;9.77;2.10;;;16.80;86.30;;;;;;5068870;28;20055;-65
2022/06/20 06:47:42;;;;;;;14.73;2.63;;;16.80;85.30;;;;;;5074322;28;20119;-65
2022/06/20 06:50:26;;;;;;;10.60;2.58;;;16.80;85.60;;;;;;5072487;28;20484;-66
2022/06/20 06:53:14;;;;;;;9.85;2.03;;;16.90;85.60;;;;;;5061530;28;20040;-66
2022/06/20 06:55:43;;;;;;;8.27;2.13;;;16.90;85.00;;;;;;5064102;28;20476;-65
2022/06/20 06:58:38;;;;;;;10.65;1.98;;;16.90;85.10;;;;;;5072998;28;20051;-66
2022/06/20 07:01:12;;;;;;;;;;;16.90;85.10;;;;;;5061135;28;20033;-66
2022/06/20 07:03:42;;;;;;;;;;;17.00;84.80;;;;;;5065431;28;19967;-66
2022/06/20 07:06:20;;;;;;;5.10;1.92;;;17.00;84.80;;;;;;5070343;28;19927;-65
2022/06/20 07:08:53;;;;;;;5.88;2.10;;;17.00;85.40;;;;;;5074602;28;20048;-65
2022/06/20 07:11:22;;;;;;;16.00;2.40;;;17.00;86.00;;;;;;5072648;28;20468;-66
2022/06/20 07:14:20;;;;;;;5.13;1.50;;;17.00;86.10;;;;;;5061956;28;20041;-66
2022/06/20 07:16:57;;;;;;;7.60;1.77;;;17.00;85.90;;;;;;5056919;28;20374;-65
2022/06/20 07:19:24;;;;;;;5.15;1.75;;;17.10;85.20;;;;;;5071549;28;20044;-66
2022/06/20 07:21:51;;;;;;;6.55;2.30;;;17.10;85.30;;;;;;5073346;28;20024;-66
2022/06/20 07:24:24;;;;;;;10.18;2.08;;;17.20;85.40;;;;;;5069211;28;20040;-66
2022/06/20 07:26:58;;;;;;;13.10;2.38;;;17.20;85.60;;;;;;5071685;28;20472;-66
2022/06/20 07:29:43;;;;;;;10.85;2.05;;;17.30;85.50;;;;;;5067472;28;20531;-66
2022/06/20 07:32:13;;;;;;;11.55;2.67;;;17.30;85.40;;;;;;5069455;28;20024;-66
2022/06/20 07:34:48;;;;;;;10.15;1.77;;;17.30;85.10;;;;;;5066284;28;20037;-66
2022/06/20 07:37:19;;;;;;;4.75;1.70;;;17.40;85.20;;;;;;5062020;28;20373;-66
2022/06/20 07:39:55;;;;;;;11.55;1.88;;;17.50;84.90;;;;;;5072892;28;20423;-66
2022/06/20 07:42:30;;;;;;;8.65;1.92;;;17.50;84.30;;;;;;5071067;28;20098;-66
2022/06/20 07:45:06;;;;;;;7.65;1.75;;;17.60;84.30;;;;;;5070421;28;20785;-66
2022/06/20 07:47:52;;;;;;;5.50;1.55;;;17.60;84.30;;;;;;5072259;28;20082;-65
2022/06/20 07:50:34;;;;;;;6.60;1.90;;;17.60;84.50;;;;;;5072701;28;20020;-66
2022/06/20 07:53:23;;;;;;;12.95;1.85;;;17.70;84.70;;;;;;5071571;28;20036;-65
2022/06/20 07:55:59;;;;;;;6.90;1.40;;;17.70;84.90;;;;;;5072351;28;20131;-66
2022/06/20 07:58:31;;;;;;;3.10;1.20;;;17.70;83.80;;;;;;5056661;28;20461;-66
2022/06/20 08:01:00;;;;;;;4.70;1.50;;;17.70;83.40;;;;;;5067783;28;20078;-65
2022/06/20 08:03:34;;;;;;;5.28;1.60;;;17.70;83.20;;;;;;5072677;28;20040;-66
2022/06/20 08:06:25;;;;;;;7.03;1.35;;;17.80;83.20;;;;;;5068748;28;20038;-66
2022/06/20 08:09:00;;;;;;;4.32;1.27;;;17.80;82.90;;;;;;5053154;28;20094;-66
2022/06/20 08:11:50;;;;;;;5.20;1.73;;;17.80;83.00;;;;;;5070334;28;20052;-66
2022/06/20 08:14:22;;;;;;;7.15;1.70;;;17.80;83.20;;;;;;5071278;28;20483;-66
2022/06/20 08:16:52;;;;;;;13.20;1.73;;;17.80;83.50;;;;;;5071434;28;20479;-66
2022/06/20 08:19:17;;;;;;;4.63;1.50;;;17.90;83.80;;;;;;5071482;28;20032;-66
2022/06/20 08:21:47;;;;;;;6.57;1.60;;;17.90;83.50;;;;;;5062150;28;20029;-66
2022/06/20 08:24:32;;;;;;;2.55;1.00;;;17.90;83.30;;;;;;5069302;28;20066;-66
2022/06/20 08:27:06;;;;;;;3.50;1.42;;;18.00;83.30;;;;;;5070433;28;20426;-66
2022/06/20 08:29:45;;;;;;;3.55;1.48;;;18.00;83.10;;;;;;5071512;28;20115;-66
2022/06/20 08:32:39;;;;;;;2.67;1.40;;;18.00;83.30;;;;;;5059003;28;20381;-66
2022/06/20 08:35:32;;;;;;;6.32;1.77;;;18.10;83.10;;;;;;5071122;28;20105;-66
2022/06/20 08:38:20;;;;;;;1.50;1.03;;;18.10;83.50;;;;;;5063126;28;20043;-66
2022/06/20 08:40:57;;;;;;;4.07;1.38;;;18.10;83.20;;;;;;5071972;28;20036;-66
2022/06/20 08:43:42;;;;;;;5.60;2.05;;;18.20;83.00;;;;;;5069990;28;20139;-66
2022/06/20 08:46:25;;;;;;;7.68;1.80;;;18.20;82.90;;;;;;5071933;28;20036;-66
2022/06/20 08:49:45;;;;;;;8.13;1.50;;;18.30;82.80;;;;;;5065941;28;20111;-66
2022/06/20 08:52:32;;;;;;;8.00;1.70;;;18.30;82.90;;;;;;5045603;28;20495;-66
2022/06/20 08:55:22;;;;;;;7.07;1.45;;;18.40;83.50;;;;;;5054888;28;20048;-66
2022/06/20 08:58:06;;;;;;;7.53;1.63;;;18.30;83.10;;;;;;5069806;28;20098;-66
2022/06/20 09:00:43;;;;;;;7.15;1.75;;;18.30;83.10;;;;;;5062540;28;20077;-68
2022/06/20 09:03:28;;;;;;;12.63;2.40;;;18.30;83.20;;;;;;5062658;28;20037;-66
2022/06/20 09:06:15;;;;;;;4.28;1.50;;;18.40;83.60;;;;;;5061733;28;20044;-66
2022/06/20 09:09:06;;;;;;;2.65;0.93;;;18.40;83.10;;;;;;5063634;28;20043;-66
2022/06/20 09:11:57;;;;;;;4.28;1.10;;;18.50;83.10;;;;;;5071169;28;20044;-66
2022/06/20 09:14:32;;;;;;;3.28;1.33;;;18.40;83.00;;;;;;5071167;28;20044;-66
2022/06/20 09:17:15;;;;;;;11.73;1.58;;;18.40;83.30;;;;;;5071775;28;20111;-65
2022/06/20 09:20:31;;;;;;;11.65;1.40;;;18.40;83.20;;;;;;5071947;28;20032;-66
2022/06/20 09:23:09;;;;;;;8.52;2.38;;;18.50;83.10;;;;;;5034131;28;20039;-66
2022/06/20 09:25:52;;;;;;;6.75;1.80;;;18.60;83.10;;;;;;5067964;28;20060;-66
2022/06/20 09:28:37;;;;;;;6.45;1.60;;;18.70;83.40;;;;;;5070987;28;20045;-65
2022/06/20 09:31:29;;;;;;;3.95;1.33;;;18.80;83.00;;;;;;5061507;28;20036;-66
2022/06/20 09:34:13;;;;;;;8.77;1.80;;;18.80;83.00;;;;;;5062187;28;20041;-66
2022/06/20 09:37:14;;;;;;;4.25;1.42;;;18.90;82.30;;;;;;5064820;28;20481;-66
2022/06/20 09:40:11;;;;;;;7.03;1.88;;;18.90;82.50;;;;;;5065422;28;20487;-66
2022/06/20 09:42:51;;;;;;;5.00;1.60;;;18.90;81.70;;;;;;5062776;28;20040;-66
2022/06/20 09:45:30;;;;;;;2.83;1.20;;;18.90;81.90;;;;;;5071270;28;20082;-66
2022/06/20 09:48:07;;;;;;;3.10;1.25;;;18.90;82.00;;;;;;5068832;28;20105;-66
2022/06/20 09:50:42;;;;;;;4.47;1.35;;;18.90;82.00;;;;;;5070716;28;20123;-66
2022/06/20 09:53:23;;;;;;;4.75;1.27;;;18.90;82.20;;;;;;5070351;28;20063;-66
2022/06/20 09:56:43;;;;;;;7.43;1.70;;;19.00;82.30;;;;;;5051450;28;20037;-66
2022/06/20 09:59:22;;;;;;;2.95;1.00;;;19.10;82.30;;;;;;5024343;28;20057;-66
2022/06/20 10:02:02;;;;;;;9.80;2.20;;;19.10;81.90;;;;;;5066071;28;20037;-66
2022/06/20 10:04:37;;;;;;;7.35;1.30;;;19.20;80.60;;;;;;5070999;28;20090;-66
2022/06/20 10:07:25;;;;;;;7.07;1.73;;;19.20;81.00;;;;;;5071295;28;20397;-66
2022/06/20 10:10:05;;;;;;;11.15;1.58;;;19.20;81.50;;;;;;5060249;28;20090;-66
2022/06/20 10:12:43;;;;;;;5.30;2.33;;;19.30;81.30;;;;;;5068268;28;20028;-66
2022/06/20 10:15:14;;;;;;;9.70;1.83;;;19.30;81.50;;;;;;5070711;28;20119;-65
2022/06/20 10:17:52;;;;;;;3.95;1.70;;;19.40;81.80;;;;;;5070969;28;20021;-66
2022/06/20 10:20:48;;;;;;;2.90;1.08;;;19.30;81.10;;;;;;5058447;28;20047;-66
2022/06/20 10:23:33;;;;;;;3.47;1.65;;;19.40;81.50;;;;;;5063902;28;20025;-66
2022/06/20 10:26:22;;;;;;;1.15;0.82;;;19.40;81.70;;;;;;5066772;28;20067;-66
2022/06/20 10:29:01;;;;;;;3.88;1.30;;;19.40;81.70;;;;;;5070442;28;20028;-66
2022/06/20 10:31:41;;;;;;;8.43;1.60;;;19.40;81.80;;;;;;5070651;28;20029;-66
2022/06/20 10:34:26;;;;;;;5.63;1.20;;;19.50;80.80;;;;;;5066816;28;20029;-66
2022/06/20 10:37:01;;;;;;;6.78;1.70;;;19.50;80.00;;;;;;5066903;28;20118;-66
2022/06/20 10:39:30;;;;;;;4.78;1.52;;;19.50;79.90;;;;;;5071274;28;20064;-66
2022/06/20 10:42:17;;;;;;;5.00;1.50;;;19.50;80.30;;;;;;5072580;28;20095;-66
2022/06/20 10:44:57;;;;;;;6.97;2.00;;;19.60;80.90;;;;;;5069775;28;20500;-66
2022/06/20 10:47:36;;;;;;;4.35;1.45;;;19.70;81.00;;;;;;5067331;28;20602;-66
2022/06/20 10:50:08;;;;;;;8.00;1.42;;;19.60;80.80;;;;;;5073177;28;20496;-66
2022/06/20 10:52:57;;;;;;;9.88;2.28;;;19.70;80.30;;;;;;5069669;28;20028;-66
2022/06/20 10:55:43;;;;;;;5.90;2.28;;;19.70;80.10;;;;;;5064467;28;20095;-66
2022/06/20 10:58:30;;;;;;;5.07;1.20;;;19.70;80.40;;;;;;5060453;28;20078;-66
2022/06/20 11:01:23;;;;;;;6.55;1.27;;;19.80;80.60;;;;;;5069005;28;20063;-66
2022/06/20 11:04:24;;;;;;;4.45;1.65;;;19.80;80.90;;;;;;5071509;28;20105;-66
2022/06/20 11:07:00;;;;;;;5.72;1.70;;;19.70;79.90;;;;;;5071562;28;20032;-66
2022/06/20 11:09:50;;;;;;;4.95;1.08;;;19.80;80.30;;;;;;5072863;28;20027;-66
2022/06/20 11:12:35;;;;;;;8.77;2.13;;;19.80;80.60;;;;;;5073680;28;20028;-66
2022/06/20 11:15:15;;;;;;;5.05;1.83;;;19.90;80.30;;;;;;5074393;28;20036;-66
2022/06/20 11:17:56;;;;;;;8.43;1.92;;;19.90;80.60;;;;;;5069447;28;20025;-66
2022/06/20 11:20:37;;;;;;;3.33;1.33;;;20.00;79.30;;;;;;5066264;28;20047;-66
2022/06/20 11:23:19;;;;;;;5.47;1.80;;;20.00;79.20;;;;;;5074280;28;20097;-66
2022/06/20 11:26:14;;;;;;;2.10;1.25;;;20.10;79.00;;;;;;5072583;28;20064;-66
2022/06/20 11:29:05;;;;;;;6.45;1.05;;;20.00;79.50;;;;;;5073265;28;20101;-66
2022/06/20 11:31:42;;;;;;;6.50;1.83;;;20.10;79.90;;;;;;5071749;28;20384;-66
2022/06/20 11:34:34;;;;;;;7.22;1.80;;;20.10;79.80;;;;;;5071618;28;20036;-66
2022/06/20 11:37:08;;;;;;;6.82;1.85;;;20.20;79.30;;;;;;5070962;28;20461;-66
2022/06/20 11:39:52;;;;;;;5.68;1.90;;;20.20;79.40;;;;;;5064521;28;20043;-66
2022/06/20 11:42:17;;;;;;;;;;;20.30;80.10;;;;;;5072384;28;20110;-66
2022/06/20 11:44:50;;;;;;;5.30;1.70;;;20.30;80.80;;;;;;5073611;28;19912;-66
2022/06/20 11:47:41;;;;;;;6.38;1.63;;;20.30;80.10;;;;;;5071930;28;20402;-66
2022/06/20 11:50:41;;;;;;;4.55;1.67;;;20.40;80.00;;;;;;5071028;28;21018;-66
2022/06/20 11:53:27;;;;;;;7.07;1.20;;;20.40;79.90;;;;;;5071210;28;20033;-66
2022/06/20 11:56:01;;;;;;;5.85;1.42;;;20.50;80.50;;;;;;5063776;28;20455;-66
2022/06/20 11:58:48;;;;;;;7.53;1.77;;;20.50;77.10;;;;;;5054870;28;20392;-66
2022/06/20 12:01:25;;;;;;;2.20;1.38;;;20.60;77.50;;;;;;5065928;28;20028;-66
2022/06/20 12:04:20;;;;;;;5.10;1.38;;;20.60;78.80;;;;;;5054212;28;20116;-65
2022/06/20 12:06:46;;;;;;;6.53;2.10;;;20.60;78.60;;;;;;5065819;28;20046;-65
2022/06/20 12:09:12;;;;;;;5.15;1.42;;;20.60;79.00;;;;;;5071545;28;20028;-65
2022/06/20 12:12:19;;;;;;;6.55;1.25;;;20.60;78.60;;;;;;5065730;28;20115;-66
2022/06/20 12:15:34;;;;;;;6.53;1.67;;;20.60;79.00;;;;;;5038373;28;20051;-65
2022/06/20 12:18:12;;;;;;;8.20;1.35;;;20.80;79.40;;;;;;5030053;28;20026;-64
2022/06/20 12:23:39;;;;;;;5.15;1.67;;;20.80;79.90;;;;;;5071504;28;20040;-65
2022/06/20 12:26:16;;;;;;;7.43;1.63;;;20.80;79.70;;;;;;5071422;28;20017;-65
2022/06/20 12:28:50;;;;;;;6.82;2.58;;;20.80;79.90;;;;;;5064907;28;20055;-65
2022/06/20 12:31:28;;;;;;;5.28;1.48;;;20.70;79.90;;;;;;5071534;28;20024;-64
2022/06/20 12:34:16;;;;;;;6.72;1.58;;;20.80;80.20;;;;;;5070129;28;20495;-64
2022/06/20 12:37:03;;;;;;;4.15;1.35;;;20.80;80.00;;;;;;5069385;28;20020;-64
2022/06/20 12:39:37;;;;;;;6.07;1.40;;;20.80;80.20;;;;;;5066444;28;20036;-64
2022/06/20 12:42:06;;;;;;;5.60;1.42;;;20.80;80.10;;;;;;5069415;28;20120;-64
2022/06/20 12:44:41;;;;;;;3.22;1.63;;;20.80;79.20;;;;;;5069567;28;20436;-64
2022/06/20 12:47:41;;;;;;;3.88;1.73;;;20.80;79.90;;;;;;5069346;28;20545;-64
2022/06/20 12:50:19;;;;;;;4.82;1.63;;;20.80;79.90;;;;;;5051448;28;20164;-66
2022/06/20 12:53:19;;;;;;;3.03;1.30;;;20.80;79.80;;;;;;5052260;28;20036;-66
2022/06/20 12:56:10;;;;;;;3.05;1.58;;;20.80;80.50;;;;;;5061347;28;20033;-66
2022/06/20 12:58:54;;;;;;;7.05;1.55;;;20.80;79.70;;;;;;5062261;28;20044;-66
2022/06/20 13:01:42;;;;;;;3.75;1.73;;;20.80;80.50;;;;;;5069986;28;20029;-66
2022/06/20 13:04:10;;;;;;;9.88;1.88;;;20.90;80.40;;;;;;5069779;28;20056;-66
2022/06/20 13:07:02;;;;;;;8.25;2.17;;;20.90;80.40;;;;;;5066287;28;20476;-66
2022/06/20 13:09:52;;;;;;;6.25;1.27;;;20.90;80.90;;;;;;5067418;28;20037;-66
2022/06/20 13:12:41;;;;;;;5.70;1.42;;;20.90;81.50;;;;;;5071854;28;20034;-66
2022/06/20 13:15:48;;;;;;;5.90;1.90;;;21.00;81.60;;;;;;5052235;28;20045;-66
2022/06/20 13:18:51;;;;;;;5.20;1.52;;;21.00;79.90;;;;;;5060720;28;20040;-66
2022/06/20 13:21:31;;;;;;;9.05;1.40;;;21.10;80.00;;;;;;5060084;28;20032;-66
2022/06/20 13:24:30;;;;;;;5.57;1.80;;;21.10;80.30;;;;;;5069961;28;20037;-66
2022/06/20 13:27:13;;;;;;;2.05;1.00;;;21.20;80.10;;;;;;5069146;28;20467;-66
2022/06/20 13:29:58;;;;;;;;;;;21.20;80.60;;;;;;5063253;28;20032;-66
2022/06/20 13:32:46;;;;;;;4.13;1.30;;;21.20;81.10;;;;;;5070455;28;19919;-66
2022/06/20 13:35:20;;;;;;;4.22;1.67;;;21.20;79.30;;;;;;5070966;28;20506;-66
2022/06/20 13:38:08;;;;;;;6.40;1.60;;;21.30;79.60;;;;;;5072200;28;20033;-66
2022/06/20 13:40:45;;;;;;;13.60;2.70;;;21.20;79.00;;;;;;5070644;28;20036;-66
2022/06/20 13:43:19;;;;;;;7.03;1.58;;;21.30;77.70;;;;;;5070440;28;20447;-66
2022/06/20 13:46:16;;;;;;;3.45;1.08;;;21.30;77.90;;;;;;5070831;28;20048;-66
2022/06/20 13:48:51;;;;;;;7.05;2.28;;;21.30;79.20;;;;;;5069572;28;20036;-66
2022/06/20 13:51:27;;;;;;;6.75;1.63;;;21.30;79.10;;;;;;5066923;28;20040;-67
2022/06/20 13:54:17;;;;;;;6.20;1.77;;;21.40;79.40;;;;;;5070229;28;20076;-66